createdAt,value
2023-01-31T00:00:08.019Z,2.07
2023-01-31T00:03:14.478Z,2.07
2023-01-31T00:06:22.659Z,2.08
2023-01-31T00:09:28.946Z,2.08
2023-01-31T00:12:35.188Z,2.10
2023-01-31T00:15:39.901Z,2.12
2023-01-31T00:18:47.081Z,2.12
2023-01-31T00:21:54.647Z,2.09
2023-01-31T00:25:00.946Z,2.01
2023-01-31T00:28:07.413Z,1.96
2023-01-31T00:31:15.298Z,1.92
2023-01-31T00:34:21.892Z,1.88
2023-01-31T00:37:28.239Z,1.87
2023-01-31T00:40:32.808Z,1.82
2023-01-31T00:43:39.080Z,1.81
2023-01-31T00:46:45.348Z,1.78
2023-01-31T00:49:49.945Z,1.75
2023-01-31T00:52:56.220Z,1.74
2023-01-31T00:56:08.487Z,1.75
2023-01-31T00:59:14.911Z,1.75
2023-01-31T01:02:19.485Z,1.76
2023-01-31T01:05:25.826Z,1.71
2023-01-31T01:08:31.228Z,1.68
2023-01-31T01:11:37.891Z,1.65
2023-01-31T01:14:44.143Z,1.66
2023-01-31T01:17:51.001Z,1.67
2023-01-31T01:20:58.736Z,1.71
2023-01-31T01:24:05.124Z,1.74
2023-01-31T01:27:09.779Z,1.75
2023-01-31T01:30:16.661Z,1.76
2023-01-31T01:33:22.811Z,1.75
2023-01-31T01:36:29.315Z,1.75
2023-01-31T01:39:35.596Z,1.74
2023-01-31T01:42:42.439Z,1.69
2023-01-31T01:45:49.095Z,1.61
2023-01-31T01:48:59.607Z,1.51
2023-01-31T01:52:11.623Z,1.46
2023-01-31T01:55:24.253Z,1.42
2023-01-31T01:58:34.812Z,1.38
2023-01-31T02:01:41.390Z,1.34
2023-01-31T02:04:50.628Z,1.35
2023-01-31T02:07:57.415Z,1.36
2023-01-31T02:11:08.921Z,1.36
2023-01-31T02:14:15.340Z,1.38
2023-01-31T02:17:20.437Z,1.41
2023-01-31T02:20:48.187Z,1.45
2023-01-31T02:24:15.019Z,1.47
2023-01-31T02:27:40.162Z,1.49
2023-01-31T02:31:21.965Z,1.50
2023-01-31T02:34:39.705Z,1.48
2023-01-31T02:38:00.478Z,1.48
2023-01-31T02:41:17.256Z,1.50
2023-01-31T02:44:49.686Z,1.47
2023-01-31T02:48:08.041Z,1.48
2023-01-31T02:51:20.991Z,1.49
2023-01-31T02:54:49.563Z,1.49
2023-01-31T02:57:58.747Z,1.49
2023-01-31T03:01:07.007Z,1.50
2023-01-31T03:04:15.033Z,1.49
2023-01-31T03:07:27.003Z,1.49
2023-01-31T03:11:01.008Z,1.51
2023-01-31T03:14:17.058Z,1.52
2023-01-31T03:17:33.974Z,1.51
2023-01-31T03:20:45.404Z,1.49
2023-01-31T03:23:56.183Z,1.47
2023-01-31T03:27:04.791Z,1.48
2023-01-31T03:30:15.227Z,1.50
2023-01-31T03:33:26.882Z,1.50
2023-01-31T03:36:40.627Z,1.50
2023-01-31T03:39:55.161Z,1.49
2023-01-31T03:43:08.148Z,1.49
2023-01-31T03:46:21.702Z,1.50
2023-01-31T03:49:31.232Z,1.50
2023-01-31T03:52:42.044Z,1.51
2023-01-31T03:55:53.507Z,1.50
2023-01-31T03:59:04.904Z,1.51
2023-01-31T04:02:15.476Z,1.53
2023-01-31T04:05:24.208Z,1.56
2023-01-31T04:08:32.367Z,1.55
2023-01-31T04:11:41.948Z,1.56
2023-01-31T04:14:48.119Z,1.56
2023-01-31T04:17:54.360Z,1.57
2023-01-31T04:21:00.623Z,1.57
2023-01-31T04:24:05.497Z,1.57
2023-01-31T04:27:12.268Z,1.55
2023-01-31T04:30:19.227Z,1.55
2023-01-31T04:33:25.722Z,1.55
2023-01-31T04:36:32.089Z,1.55
2023-01-31T04:39:36.741Z,1.55
2023-01-31T04:42:43.003Z,1.56
2023-01-31T04:45:49.111Z,1.56
2023-01-31T04:48:55.428Z,1.56
2023-01-31T04:51:59.932Z,1.58
2023-01-31T04:55:06.883Z,1.57
2023-01-31T04:58:13.137Z,1.55
2023-01-31T05:01:19.524Z,1.54
2023-01-31T05:04:25.626Z,1.54
2023-01-31T05:07:31.974Z,1.54
2023-01-31T05:10:37.347Z,1.52
2023-01-31T05:13:45.565Z,1.50
2023-01-31T05:16:51.795Z,1.48
2023-01-31T05:19:58.534Z,1.44
2023-01-31T05:23:05.409Z,1.40
2023-01-31T05:26:11.440Z,1.37
2023-01-31T05:29:17.724Z,1.36
2023-01-31T05:32:24.481Z,1.37
2023-01-31T05:35:31.285Z,1.36
2023-01-31T05:38:37.638Z,1.37
2023-01-31T05:41:43.980Z,1.37
2023-01-31T05:44:48.492Z,1.34
2023-01-31T05:47:55.915Z,1.33
2023-01-31T05:51:02.299Z,1.31
2023-01-31T05:54:07.194Z,1.27
2023-01-31T05:57:14.511Z,1.25
2023-01-31T06:00:22.063Z,1.25
2023-01-31T06:03:28.591Z,1.23
2023-01-31T06:06:34.938Z,1.23
2023-01-31T06:09:40.664Z,1.21
2023-01-31T06:12:46.896Z,1.20
2023-01-31T06:15:52.382Z,1.20
2023-01-31T06:18:59.081Z,1.19
2023-01-31T06:22:05.711Z,1.17
2023-01-31T06:25:13.004Z,1.17
2023-01-31T06:28:19.385Z,1.19
2023-01-31T06:31:24.013Z,1.20
2023-01-31T06:34:30.547Z,1.20
2023-01-31T06:37:37.120Z,1.20
2023-01-31T06:40:43.338Z,1.19
2023-01-31T06:43:50.040Z,1.19
2023-01-31T06:46:56.288Z,1.21
2023-01-31T06:50:02.760Z,1.21
2023-01-31T06:53:09.079Z,1.21
2023-01-31T06:56:13.604Z,1.20
2023-01-31T06:59:19.958Z,1.17
2023-01-31T07:02:25.038Z,1.19
2023-01-31T07:05:31.525Z,1.22
2023-01-31T07:08:38.282Z,1.23
2023-01-31T07:11:44.637Z,1.25
2023-01-31T07:14:49.289Z,1.26
2023-01-31T07:18:00.893Z,1.27
2023-01-31T07:21:07.547Z,1.29
2023-01-31T07:24:14.253Z,1.31
2023-01-31T07:27:20.841Z,1.35
2023-01-31T07:30:27.372Z,1.39
2023-01-31T07:33:33.615Z,1.43
2023-01-31T07:36:39.830Z,1.42
2023-01-31T07:39:46.059Z,1.43
2023-01-31T07:42:52.296Z,1.47
2023-01-31T07:45:58.626Z,1.53
2023-01-31T07:49:03.199Z,1.58
2023-01-31T07:52:09.589Z,1.57
2023-01-31T07:55:15.883Z,1.57
2023-01-31T07:58:20.369Z,1.57
2023-01-31T08:01:48.273Z,1.56
2023-01-31T08:04:55.993Z,1.56
2023-01-31T08:08:11.415Z,1.55
2023-01-31T08:11:17.663Z,1.55
2023-01-31T08:14:25.705Z,1.56
2023-01-31T08:17:33.228Z,1.56
2023-01-31T08:20:39.537Z,1.57
2023-01-31T08:23:44.972Z,1.61
2023-01-31T08:26:51.252Z,1.64
2023-01-31T08:29:56.660Z,1.67
2023-01-31T08:33:03.552Z,1.67
2023-01-31T08:36:17.809Z,1.66
2023-01-31T08:39:24.014Z,1.69
2023-01-31T08:42:30.623Z,1.75
2023-01-31T08:45:37.431Z,1.83
2023-01-31T08:48:43.767Z,1.88
2023-01-31T08:51:48.323Z,1.92
2023-01-31T08:54:55.008Z,1.94
2023-01-31T08:58:02.073Z,1.95
2023-01-31T09:01:10.238Z,2.00
2023-01-31T09:04:16.510Z,2.06
2023-01-31T09:07:22.808Z,2.07
2023-01-31T09:10:27.296Z,2.13
2023-01-31T09:13:35.385Z,2.14
2023-01-31T09:16:43.575Z,2.18
2023-01-31T09:19:50.803Z,2.24
2023-01-31T09:22:57.062Z,2.25
2023-01-31T09:26:03.679Z,2.28
2023-01-31T09:29:09.970Z,2.32
2023-01-31T09:32:16.283Z,2.36
2023-01-31T09:35:22.094Z,2.39
2023-01-31T09:38:28.721Z,2.38
2023-01-31T09:41:38.508Z,2.37
2023-01-31T09:44:48.009Z,2.41
2023-01-31T09:47:56.387Z,2.47
2023-01-31T09:51:03.843Z,2.52
2023-01-31T09:54:18.805Z,2.60
2023-01-31T09:57:37.016Z,2.61
2023-01-31T10:00:49.216Z,2.66
2023-01-31T10:04:19.102Z,2.74
2023-01-31T10:07:30.829Z,2.77
2023-01-31T10:10:40.915Z,2.79
2023-01-31T10:13:53.138Z,2.80
2023-01-31T10:17:07.201Z,2.74
2023-01-31T10:20:22.678Z,2.71
2023-01-31T10:23:35.603Z,2.67
2023-01-31T10:26:46.284Z,2.67
2023-01-31T10:29:55.375Z,2.65
2023-01-31T10:33:10.713Z,2.68
2023-01-31T10:36:26.665Z,2.71
2023-01-31T10:39:35.488Z,2.69
2023-01-31T10:42:46.399Z,2.70
2023-01-31T10:45:52.610Z,2.70
2023-01-31T10:48:59.010Z,2.68
2023-01-31T10:52:28.644Z,2.64
2023-01-31T10:55:49.099Z,2.64
2023-01-31T10:58:56.733Z,2.59
2023-01-31T11:02:03.283Z,2.51
2023-01-31T11:05:17.544Z,2.50
2023-01-31T11:08:35.252Z,2.45
2023-01-31T11:11:56.951Z,2.42
2023-01-31T11:15:18.985Z,2.45
2023-01-31T11:18:33.281Z,2.50
2023-01-31T11:21:40.007Z,2.49
2023-01-31T11:24:51.353Z,2.53
2023-01-31T11:28:02.210Z,2.59
2023-01-31T11:31:18.847Z,2.67
2023-01-31T11:34:27.387Z,2.75
2023-01-31T11:37:35.435Z,2.77
2023-01-31T11:40:42.889Z,2.81
2023-01-31T11:43:49.046Z,2.84
2023-01-31T11:46:58.096Z,2.91
2023-01-31T11:50:05.689Z,2.96
2023-01-31T11:53:21.341Z,2.96
2023-01-31T11:56:32.188Z,2.93
2023-01-31T11:59:38.519Z,2.94
2023-01-31T12:02:43.307Z,2.94
2023-01-31T12:05:53.403Z,2.93
2023-01-31T12:09:01.215Z,2.89
2023-01-31T12:12:25.453Z,2.80
2023-01-31T12:15:33.073Z,2.71
2023-01-31T12:19:10.346Z,2.70
2023-01-31T12:22:22.134Z,2.68
2023-01-31T12:25:37.321Z,2.66
2023-01-31T12:29:05.379Z,2.59
2023-01-31T12:32:27.836Z,2.47
2023-01-31T12:35:46.096Z,2.41
2023-01-31T12:39:15.658Z,2.36
2023-01-31T12:42:41.776Z,2.36
2023-01-31T12:45:58.482Z,2.37
2023-01-31T12:49:29.275Z,2.44
2023-01-31T12:52:44.351Z,2.54
2023-01-31T12:56:00.156Z,2.60
2023-01-31T12:59:19.920Z,2.63
2023-01-31T13:02:40.058Z,2.62
2023-01-31T13:05:51.341Z,2.61
2023-01-31T13:09:08.096Z,2.61
2023-01-31T13:12:19.965Z,2.65
2023-01-31T13:15:35.578Z,2.64
2023-01-31T13:18:43.215Z,2.63
2023-01-31T13:21:53.226Z,2.63
2023-01-31T13:25:08.240Z,2.68
2023-01-31T13:28:21.390Z,2.76
2023-01-31T13:31:29.815Z,2.83
2023-01-31T13:34:42.608Z,2.87
2023-01-31T13:37:51.880Z,2.93
2023-01-31T13:41:00.524Z,2.98
2023-01-31T13:44:07.183Z,2.98
2023-01-31T13:47:20.093Z,2.94
2023-01-31T13:50:36.416Z,2.85
2023-01-31T13:53:48.889Z,2.81
2023-01-31T13:56:57.059Z,2.73
2023-01-31T14:00:08.179Z,2.61
2023-01-31T14:03:16.327Z,2.53
2023-01-31T14:06:23.063Z,2.48
2023-01-31T14:09:31.085Z,2.46
2023-01-31T14:12:39.868Z,2.41
2023-01-31T14:15:54.158Z,2.38
2023-01-31T14:19:00.558Z,2.34
2023-01-31T14:22:15.528Z,2.32
2023-01-31T14:25:44.632Z,2.28
2023-01-31T14:28:51.686Z,2.26
2023-01-31T14:31:59.924Z,2.23
2023-01-31T14:35:24.368Z,2.19
2023-01-31T14:38:45.788Z,2.19
2023-01-31T14:42:16.272Z,2.16
2023-01-31T14:45:49.433Z,2.15
2023-01-31T14:49:30.717Z,2.12
2023-01-31T14:52:48.865Z,2.08
2023-01-31T14:56:14.108Z,2.07
2023-01-31T14:59:31.094Z,2.03
2023-01-31T15:03:01.727Z,2.04
2023-01-31T15:06:14.952Z,2.02
2023-01-31T15:09:41.109Z,2.01
2023-01-31T15:13:00.017Z,2.03
2023-01-31T15:16:09.695Z,2.03
2023-01-31T15:19:20.286Z,2.01
2023-01-31T15:22:27.651Z,2.00
2023-01-31T15:25:41.247Z,2.01
2023-01-31T15:28:48.374Z,1.98
2023-01-31T15:31:58.387Z,1.94
2023-01-31T15:35:15.822Z,1.93
2023-01-31T15:38:30.089Z,1.93
2023-01-31T15:41:46.435Z,1.93
2023-01-31T15:44:52.633Z,1.92
2023-01-31T15:48:03.686Z,1.92
2023-01-31T15:51:15.264Z,1.87
2023-01-31T15:54:21.500Z,1.84
2023-01-31T15:57:29.944Z,1.83
2023-01-31T16:00:38.412Z,1.81
2023-01-31T16:03:50.399Z,1.80
2023-01-31T16:06:57.380Z,1.79
2023-01-31T16:10:03.768Z,1.80
2023-01-31T16:13:08.039Z,1.81
2023-01-31T16:16:15.184Z,1.80
2023-01-31T16:19:26.861Z,1.77
2023-01-31T16:22:34.066Z,1.76
2023-01-31T16:25:40.280Z,1.80
2023-01-31T16:28:53.807Z,1.81
2023-01-31T16:32:00.156Z,1.77
2023-01-31T16:35:05.914Z,1.77
2023-01-31T16:38:26.490Z,1.79
2023-01-31T16:41:46.898Z,1.78
2023-01-31T16:44:54.167Z,1.76
2023-01-31T16:48:20.618Z,1.77
2023-01-31T16:51:44.972Z,1.77
2023-01-31T16:54:55.289Z,1.77
2023-01-31T16:58:01.493Z,1.76
2023-01-31T17:01:17.039Z,1.78
2023-01-31T17:04:24.448Z,1.77
2023-01-31T17:07:34.989Z,1.74
2023-01-31T17:10:42.769Z,1.73
2023-01-31T17:13:49.040Z,1.71
2023-01-31T17:16:55.913Z,1.68
2023-01-31T17:20:02.215Z,1.66
2023-01-31T17:23:06.935Z,1.62
2023-01-31T17:26:19.130Z,1.59
2023-01-31T17:29:26.138Z,1.59
2023-01-31T17:32:33.232Z,1.58
2023-01-31T17:35:41.664Z,1.59
2023-01-31T17:38:47.888Z,1.61
2023-01-31T17:41:54.807Z,1.64
2023-01-31T17:45:01.124Z,1.68
2023-01-31T17:48:07.586Z,1.67
2023-01-31T17:51:14.620Z,1.62
2023-01-31T17:54:20.992Z,1.57
2023-01-31T17:57:25.430Z,1.55
2023-01-31T18:00:31.750Z,1.56
2023-01-31T18:03:36.301Z,1.57
2023-01-31T18:06:42.604Z,1.59
2023-01-31T18:09:47.149Z,1.61
2023-01-31T18:12:53.431Z,1.64
2023-01-31T18:16:08.060Z,1.65
2023-01-31T18:19:14.591Z,1.67
2023-01-31T18:22:20.825Z,1.70
2023-01-31T18:25:27.088Z,1.73
2023-01-31T18:28:31.739Z,1.72
2023-01-31T18:31:38.024Z,1.72
2023-01-31T18:34:42.630Z,1.74
2023-01-31T18:37:49.816Z,1.76
2023-01-31T18:40:56.465Z,1.77
2023-01-31T18:44:02.740Z,1.79
2023-01-31T18:47:07.357Z,1.81
2023-01-31T18:50:14.476Z,1.83
2023-01-31T18:53:20.669Z,1.85
2023-01-31T18:56:26.895Z,1.86
2023-01-31T18:59:34.140Z,1.88
2023-01-31T19:02:40.353Z,1.89
2023-01-31T19:05:47.106Z,1.89
2023-01-31T19:08:55.170Z,1.89
2023-01-31T19:12:01.529Z,1.90
2023-01-31T19:15:07.054Z,1.91
2023-01-31T19:18:14.853Z,1.93
2023-01-31T19:21:23.199Z,1.93
2023-01-31T19:24:29.659Z,1.94
2023-01-31T19:27:36.062Z,1.97
2023-01-31T19:30:40.817Z,2.00
2023-01-31T19:33:50.745Z,2.02
2023-01-31T19:36:57.142Z,2.01
2023-01-31T19:40:02.138Z,2.00
2023-01-31T19:43:08.451Z,1.96
2023-01-31T19:46:13.225Z,1.94
2023-01-31T19:49:19.549Z,1.91
2023-01-31T19:52:25.800Z,1.85
2023-01-31T19:55:33.552Z,1.83
2023-01-31T19:58:40.230Z,1.78
2023-01-31T20:01:46.543Z,1.75
2023-01-31T20:04:51.995Z,1.72
2023-01-31T20:07:58.276Z,1.70
2023-01-31T20:11:06.064Z,1.69
2023-01-31T20:14:12.336Z,1.67
2023-01-31T20:17:18.591Z,1.66
2023-01-31T20:20:24.961Z,1.65
2023-01-31T20:23:31.656Z,1.63
2023-01-31T20:26:37.942Z,1.63
2023-01-31T20:29:42.446Z,1.64
2023-01-31T20:32:48.696Z,1.64
2023-01-31T20:35:54.990Z,1.65
2023-01-31T20:38:59.478Z,1.66
2023-01-31T20:42:05.955Z,1.67
2023-01-31T20:45:13.460Z,1.68
2023-01-31T20:48:20.115Z,1.71
2023-01-31T20:51:26.327Z,1.74
2023-01-31T20:54:34.071Z,1.76
2023-01-31T20:57:40.340Z,1.78
2023-01-31T21:00:46.616Z,1.81
2023-01-31T21:03:52.037Z,1.82
2023-01-31T21:06:58.337Z,1.83
2023-01-31T21:10:02.915Z,1.85
2023-01-31T21:13:09.841Z,1.88
2023-01-31T21:16:17.012Z,1.88
2023-01-31T21:19:23.204Z,1.88
2023-01-31T21:22:31.138Z,1.89
2023-01-31T21:25:37.413Z,1.89
2023-01-31T21:28:43.853Z,1.88
2023-01-31T21:31:50.136Z,1.86
2023-01-31T21:34:54.840Z,1.84
2023-01-31T21:38:01.100Z,1.85
2023-01-31T21:41:25.363Z,1.85
2023-01-31T21:44:31.665Z,1.85
2023-01-31T21:47:56.257Z,1.87
2023-01-31T21:51:07.257Z,1.88
2023-01-31T21:54:13.476Z,1.89
2023-01-31T21:57:19.717Z,1.91
2023-01-31T22:00:24.474Z,1.92
2023-01-31T22:03:30.787Z,1.93
2023-01-31T22:06:38.197Z,1.95
2023-01-31T22:09:44.584Z,1.97
2023-01-31T22:12:49.123Z,1.98
2023-01-31T22:15:58.752Z,1.98
2023-01-31T22:19:04.975Z,1.98
2023-01-31T22:22:11.251Z,1.98
2023-01-31T22:25:17.605Z,2.00
2023-01-31T22:28:22.164Z,2.02
2023-01-31T22:31:29.132Z,2.04
2023-01-31T22:34:35.543Z,2.06
2023-01-31T22:37:40.080Z,2.06
2023-01-31T22:40:47.008Z,2.06
2023-01-31T22:43:54.457Z,2.06
2023-01-31T22:47:00.716Z,2.07
2023-01-31T22:50:08.807Z,2.08
2023-01-31T22:53:15.111Z,2.09
2023-01-31T22:56:20.852Z,2.12
2023-01-31T22:59:27.080Z,2.15
2023-01-31T23:02:32.760Z,2.18
2023-01-31T23:05:43.728Z,2.20
2023-01-31T23:08:50.073Z,2.23
2023-01-31T23:11:54.620Z,2.27
2023-01-31T23:15:00.878Z,2.30
2023-01-31T23:18:07.779Z,2.34
2023-01-31T23:21:16.702Z,2.37
2023-01-31T23:24:23.067Z,2.39
2023-01-31T23:27:29.445Z,2.39
2023-01-31T23:30:35.767Z,2.39
2023-01-31T23:33:40.465Z,2.39
2023-01-31T23:36:46.751Z,2.37
2023-01-31T23:39:51.648Z,2.36
2023-01-31T23:42:58.189Z,2.35
2023-01-31T23:46:04.504Z,2.35
2023-01-31T23:49:09.109Z,2.36
2023-01-31T23:52:15.412Z,2.35
2023-01-31T23:55:22.689Z,2.35
2023-01-31T23:58:29.055Z,2.36
